Offutt Air Force Base
KOFF : now visible

Airfield :











YOU CAN JOIN US ON...

 
LOGIN :

Register | Disclaimer

   EN    FR    IT 

 









Legend :    VFR   Marginal VFR   IFR   Intensive IFR   Very Intensive IFR
Visi :
Ceiling :
>= 8 km
>= 3000ft
5 to 8 km
1000 to 3000 ft
1500m to 5 km
500 to 1000 ft
800 to 1500m
200 to 500 ft
< 800m
< 200 ft
Symbols :   Thunderstorms  Fog  Heavy snow  Heavy precipitations  Wind > 20 kt






- Airport Elevation : 1052 ft


KOFF - Offutt Air Force Base

CURRENT METAR :
  • 120256Z COR 13012KT 10SM BKN220 M02/M06 A3016 RMK AO2A SLP234 RVRNO $ COR 0309

EXPIRED METARs :
  • 120156Z 13009KT 10SM BKN220 M01/M06 A3021 RMK AO2A SLP250 RVRNO $
  • 120056Z 10008KT 10SM BKN220 M01/M07 A3023 RMK AO2A SLP259 RVRNO $

TAF TAF KOFF
Valid from the 12 at 02:00 until the 13 at 08:00 UTC


120200Z 1202/1308 13009KT 9999 BKN220 WS010/15035KT QNH3015INS
BECMG 1205/1206 17009KT 9999 BKN050 BKN220 WS010/20035KT 620502 QNH3005INS
BECMG 1209/1210 17009KT 9999 OVC020 WS010/20035KT 620201 QNH3002INS
BECMG 1211/1212 23009KT 9999 OVC020 WS010/20035KT 620201 QNH2998INS
BECMG 1215/1216 31009KT 9999 SCT020 BKN200 QNH3000INS WND VRB06KT AFT 1300 TX06/1220Z TNM02/1204Z



MET'MAP, your aeronautical weather chart ! - Copyright ORBIFLY December 2007 - Disclaimer

ORBIFLY MET'MAP TEAM :

Programming & Development : Alexandra Zaïnal
Concept & original design : Baudouin d'Aumeries
Assistance for programming : Marc-Olivier Méhu
Technical & hardware support : Manuel Goepfert

Contact : metmap@orbifly.com




SOURCES & CREDITS :

   NOAA       Earth
Advisory